sensor_id;sensor_type;location;lat;lon;timestamp;pressure;altitude;pressure_sealevel;temperature;humidity
19108;BME280;9686;48.832;9.126;2023-04-19T00:00:43;98729.63;;;11.27;nan
19108;BME280;9686;48.832;9.126;2023-04-19T00:03:09;98717.47;;;11.20;nan
19108;BME280;9686;48.832;9.126;2023-04-19T00:05:35;98726.16;;;11.10;nan
19108;BME280;9686;48.832;9.126;2023-04-19T00:08:03;98717.44;;;11.08;nan
19108;BME280;9686;48.832;9.126;2023-04-19T00:10:28;98720.94;;;11.02;nan
19108;BME280;9686;48.832;9.126;2023-04-19T00:12:53;98733.09;;;11.12;nan
19108;BME280;9686;48.832;9.126;2023-04-19T00:15:18;98721.78;;;11.17;nan
19108;BME280;9686;48.832;9.126;2023-04-19T00:17:44;98726.16;;;11.05;nan
19108;BME280;9686;48.832;9.126;2023-04-19T00:20:10;98720.06;;;11.03;nan
19108;BME280;9686;48.832;9.126;2023-04-19T00:22:38;98712.22;;;11.06;nan
19108;BME280;9686;48.832;9.126;2023-04-19T00:25:04;98710.47;;;11.16;nan
19108;BME280;9686;48.832;9.126;2023-04-19T00:27:29;98715.69;;;11.15;nan
19108;BME280;9686;48.832;9.126;2023-04-19T00:29:55;98717.44;;;11.12;nan
19108;BME280;9686;48.832;9.126;2023-04-19T00:32:22;98711.34;;;11.07;nan
19108;BME280;9686;48.832;9.126;2023-04-19T00:34:47;98721.81;;;11.04;nan
19108;BME280;9686;48.832;9.126;2023-04-19T00:37:13;98713.94;;;10.92;nan
19108;BME280;9686;48.832;9.126;2023-04-19T00:39:38;98720.91;;;10.92;nan
19108;BME280;9686;48.832;9.126;2023-04-19T00:42:04;98715.72;;;10.96;nan
19108;BME280;9686;48.832;9.126;2023-04-19T00:44:29;98718.34;;;10.93;nan
19108;BME280;9686;48.832;9.126;2023-04-19T00:46:56;98715.72;;;10.93;nan
19108;BME280;9686;48.832;9.126;2023-04-19T00:49:22;98715.72;;;10.95;nan
19108;BME280;9686;48.832;9.126;2023-04-19T00:51:49;98708.75;;;10.98;nan
19108;BME280;9686;48.832;9.126;2023-04-19T00:54:15;98714.81;;;10.91;nan
19108;BME280;9686;48.832;9.126;2023-04-19T00:56:40;98708.72;;;10.88;nan
19108;BME280;9686;48.832;9.126;2023-04-19T00:59:06;98713.13;;;10.95;nan
19108;BME280;9686;48.832;9.126;2023-04-19T01:01:32;98708.72;;;10.88;nan
19108;BME280;9686;48.832;9.126;2023-04-19T01:03:59;98707.00;;;10.91;nan
19108;BME280;9686;48.832;9.126;2023-04-19T01:06:26;98702.66;;;10.89;nan
19108;BME280;9686;48.832;9.126;2023-04-19T01:08:51;98701.78;;;10.77;nan
19108;BME280;9686;48.832;9.126;2023-04-19T01:11:17;98701.78;;;10.82;nan
19108;BME280;9686;48.832;9.126;2023-04-19T01:13:42;98701.78;;;10.74;nan
19108;BME280;9686;48.832;9.126;2023-04-19T01:16:07;98695.69;;;10.81;nan
19108;BME280;9686;48.832;9.126;2023-04-19T01:18:33;98690.44;;;10.65;nan
19108;BME280;9686;48.832;9.126;2023-04-19T01:21:02;98689.63;;;10.75;nan
19108;BME280;9686;48.832;9.126;2023-04-19T01:23:27;98685.28;;;10.77;nan
19108;BME280;9686;48.832;9.126;2023-04-19T01:25:53;98684.38;;;10.66;nan
19108;BME280;9686;48.832;9.126;2023-04-19T01:28:18;98680.94;;;10.74;nan
19108;BME280;9686;48.832;9.126;2023-04-19T01:30:43;98677.44;;;10.68;nan
19108;BME280;9686;48.832;9.126;2023-04-19T01:33:09;98674.81;;;10.60;nan
19108;BME280;9686;48.832;9.126;2023-04-19T01:35:34;98680.03;;;10.60;nan
19108;BME280;9686;48.832;9.126;2023-04-19T01:37:59;98682.63;;;10.56;nan
19108;BME280;9686;48.832;9.126;2023-04-19T01:40:26;98682.63;;;10.49;nan
19108;BME280;9686;48.832;9.126;2023-04-19T01:42:51;98672.19;;;10.49;nan
19108;BME280;9686;48.832;9.126;2023-04-19T01:45:17;98670.47;;;10.44;nan
19108;BME280;9686;48.832;9.126;2023-04-19T01:47:42;98670.47;;;10.64;nan
19108;BME280;9686;48.832;9.126;2023-04-19T01:50:08;98670.47;;;10.64;nan
19108;BME280;9686;48.832;9.126;2023-04-19T01:52:33;98664.38;;;10.54;nan
19108;BME280;9686;48.832;9.126;2023-04-19T01:54:58;98662.66;;;10.64;nan
19108;BME280;9686;48.832;9.126;2023-04-19T01:57:24;98663.50;;;10.60;nan
19108;BME280;9686;48.832;9.126;2023-04-19T01:59:49;98668.72;;;10.57;nan
19108;BME280;9686;48.832;9.126;2023-04-19T02:02:15;98660.88;;;10.37;nan
19108;BME280;9686;48.832;9.126;2023-04-19T02:04:40;98661.78;;;10.42;nan
19108;BME280;9686;48.832;9.126;2023-04-19T02:07:06;98659.13;;;10.37;nan
19108;BME280;9686;48.832;9.126;2023-04-19T02:09:34;98654.81;;;10.41;nan
19108;BME280;9686;48.832;9.126;2023-04-19T02:12:00;98647.00;;;10.45;nan
19108;BME280;9686;48.832;9.126;2023-04-19T02:14:25;98648.72;;;10.40;nan
19108;BME280;9686;48.832;9.126;2023-04-19T02:16:50;98650.44;;;10.38;nan
19108;BME280;9686;48.832;9.126;2023-04-19T02:19:16;98641.75;;;10.35;nan
19108;BME280;9686;48.832;9.126;2023-04-19T02:21:42;98642.63;;;10.40;nan
19108;BME280;9686;48.832;9.126;2023-04-19T02:24:07;98631.38;;;10.42;nan
19108;BME280;9686;48.832;9.126;2023-04-19T02:26:32;98637.44;;;10.44;nan
19108;BME280;9686;48.832;9.126;2023-04-19T02:28:58;98636.59;;;10.41;nan
19108;BME280;9686;48.832;9.126;2023-04-19T02:31:24;98637.41;;;10.38;nan
19108;BME280;9686;48.832;9.126;2023-04-19T02:33:49;98625.28;;;10.46;nan
19108;BME280;9686;48.832;9.126;2023-04-19T02:36:14;98630.50;;;10.45;nan
19108;BME280;9686;48.832;9.126;2023-04-19T02:38:40;98634.84;;;10.41;nan
19108;BME280;9686;48.832;9.126;2023-04-19T02:41:05;98637.41;;;10.38;nan
19108;BME280;9686;48.832;9.126;2023-04-19T02:43:31;98633.94;;;10.33;nan
19108;BME280;9686;48.832;9.126;2023-04-19T02:45:56;98633.09;;;10.42;nan
19108;BME280;9686;48.832;9.126;2023-04-19T02:48:21;98629.59;;;10.37;nan
19108;BME280;9686;48.832;9.126;2023-04-19T02:50:46;98631.38;;;10.44;nan
19108;BME280;9686;48.832;9.126;2023-04-19T02:53:18;98635.66;;;10.31;nan
19108;BME280;9686;48.832;9.126;2023-04-19T02:55:43;98629.59;;;10.26;nan
19108;BME280;9686;48.832;9.126;2023-04-19T02:58:08;98630.47;;;10.40;nan
19108;BME280;9686;48.832;9.126;2023-04-19T03:00:33;98627.00;;;10.40;nan
19108;BME280;9686;48.832;9.126;2023-04-19T03:02:59;98626.97;;;10.29;nan
19108;BME280;9686;48.832;9.126;2023-04-19T03:05:26;98628.72;;;10.26;nan
19108;BME280;9686;48.832;9.126;2023-04-19T03:07:51;98624.34;;;10.20;nan
19108;BME280;9686;48.832;9.126;2023-04-19T03:10:17;98624.38;;;10.25;nan
19108;BME280;9686;48.832;9.126;2023-04-19T03:12:42;98623.50;;;10.26;nan
19108;BME280;9686;48.832;9.126;2023-04-19T03:15:08;98619.09;;;10.14;nan
19108;BME280;9686;48.832;9.126;2023-04-19T03:17:34;98624.38;;;10.28;nan
19108;BME280;9686;48.832;9.126;2023-04-19T03:20:00;98613.91;;;10.15;nan
19108;BME280;9686;48.832;9.126;2023-04-19T03:22:25;98626.03;;;10.10;nan
19108;BME280;9686;48.832;9.126;2023-04-19T03:24:51;98619.09;;;10.08;nan
19108;BME280;9686;48.832;9.126;2023-04-19T03:27:16;98619.13;;;10.20;nan
19108;BME280;9686;48.832;9.126;2023-04-19T03:29:41;98611.28;;;10.12;nan
19108;BME280;9686;48.832;9.126;2023-04-19T03:32:07;98613.88;;;10.03;nan
19108;BME280;9686;48.832;9.126;2023-04-19T03:34:33;98624.34;;;10.18;nan
19108;BME280;9686;48.832;9.126;2023-04-19T03:36:58;98619.13;;;10.18;nan
19108;BME280;9686;48.832;9.126;2023-04-19T03:39:23;98621.78;;;10.23;nan
19108;BME280;9686;48.832;9.126;2023-04-19T03:41:48;98612.16;;;10.13;nan
19108;BME280;9686;48.832;9.126;2023-04-19T03:44:14;98606.13;;;10.22;nan
19108;BME280;9686;48.832;9.126;2023-04-19T03:46:39;98603.50;;;10.15;nan
19108;BME280;9686;48.832;9.126;2023-04-19T03:49:04;98611.28;;;10.12;nan
19108;BME280;9686;48.832;9.126;2023-04-19T03:51:30;98616.47;;;9.94;nan
19108;BME280;9686;48.832;9.126;2023-04-19T03:53:55;98608.66;;;10.11;nan
19108;BME280;9686;48.832;9.126;2023-04-19T03:56:21;98608.66;;;10.06;nan
19108;BME280;9686;48.832;9.126;2023-04-19T03:58:46;98604.31;;;10.01;nan
19108;BME280;9686;48.832;9.126;2023-04-19T04:01:21;98613.88;;;10.11;nan
19108;BME280;9686;48.832;9.126;2023-04-19T04:03:48;98609.53;;;10.14;nan
19108;BME280;9686;48.832;9.126;2023-04-19T04:06:13;98607.78;;;9.89;nan
19108;BME280;9686;48.832;9.126;2023-04-19T04:08:39;98606.06;;;10.03;nan
19108;BME280;9686;48.832;9.126;2023-04-19T04:11:04;98613.88;;;9.97;nan
19108;BME280;9686;48.832;9.126;2023-04-19T04:13:29;98609.53;;;10.04;nan
19108;BME280;9686;48.832;9.126;2023-04-19T04:15:55;98611.25;;;10.00;nan
19108;BME280;9686;48.832;9.126;2023-04-19T04:18:20;98606.91;;;9.95;nan
19108;BME280;9686;48.832;9.126;2023-04-19T04:20:45;98609.50;;;9.90;nan
19108;BME280;9686;48.832;9.126;2023-04-19T04:23:11;98608.56;;;9.74;nan
19108;BME280;9686;48.832;9.126;2023-04-19T04:25:38;98613.78;;;9.79;nan
19108;BME280;9686;48.832;9.126;2023-04-19T04:28:03;98618.19;;;9.92;nan
19108;BME280;9686;48.832;9.126;2023-04-19T04:30:29;98614.66;;;9.72;nan
19108;BME280;9686;48.832;9.126;2023-04-19T04:32:54;98611.19;;;9.83;nan
19108;BME280;9686;48.832;9.126;2023-04-19T04:35:22;98610.38;;;9.91;nan
19108;BME280;9686;48.832;9.126;2023-04-19T04:37:47;98613.81;;;9.88;nan
19108;BME280;9686;48.832;9.126;2023-04-19T04:40:13;98615.59;;;9.98;nan
19108;BME280;9686;48.832;9.126;2023-04-19T04:42:38;98620.81;;;9.97;nan
19108;BME280;9686;48.832;9.126;2023-04-19T04:45:04;98615.59;;;9.97;nan
19108;BME280;9686;48.832;9.126;2023-04-19T04:47:33;98609.53;;;10.02;nan
19108;BME280;9686;48.832;9.126;2023-04-19T04:49:59;98615.59;;;9.95;nan
19108;BME280;9686;48.832;9.126;2023-04-19T04:52:25;98612.94;;;9.81;nan
19108;BME280;9686;48.832;9.126;2023-04-19T04:54:50;98616.38;;;9.73;nan
19108;BME280;9686;48.832;9.126;2023-04-19T04:57:15;98618.97;;;9.73;nan
19108;BME280;9686;48.832;9.126;2023-04-19T04:59:41;98624.19;;;9.73;nan
19108;BME280;9686;48.832;9.126;2023-04-19T05:02:06;98625.06;;;9.72;nan
19108;BME280;9686;48.832;9.126;2023-04-19T05:04:31;98626.78;;;9.73;nan
19108;BME280;9686;48.832;9.126;2023-04-19T05:06:57;98620.72;;;9.72;nan
19108;BME280;9686;48.832;9.126;2023-04-19T05:09:22;98625.94;;;9.77;nan
19108;BME280;9686;48.832;9.126;2023-04-19T05:11:47;98628.53;;;9.78;nan
19108;BME280;9686;48.832;9.126;2023-04-19T05:14:13;98629.47;;;9.91;nan
19108;BME280;9686;48.832;9.126;2023-04-19T05:16:38;98626.88;;;9.93;nan
19108;BME280;9686;48.832;9.126;2023-04-19T05:19:04;98635.50;;;9.88;nan
19108;BME280;9686;48.832;9.126;2023-04-19T05:21:29;98621.63;;;9.83;nan
19108;BME280;9686;48.832;9.126;2023-04-19T05:23:55;98629.50;;;10.09;nan
19108;BME280;9686;48.832;9.126;2023-04-19T05:26:20;98632.09;;;9.96;nan
19108;BME280;9686;48.832;9.126;2023-04-19T05:28:45;98630.34;;;9.90;nan
19108;BME280;9686;48.832;9.126;2023-04-19T05:31:11;98633.00;;;10.14;nan
19108;BME280;9686;48.832;9.126;2023-04-19T05:33:36;98640.03;;;10.34;nan
19108;BME280;9686;48.832;9.126;2023-04-19T05:36:02;98633.06;;;10.34;nan
19108;BME280;9686;48.832;9.126;2023-04-19T05:38:27;98637.41;;;10.40;nan
19108;BME280;9686;48.832;9.126;2023-04-19T05:40:53;98628.72;;;10.26;nan
19108;BME280;9686;48.832;9.126;2023-04-19T05:43:18;98633.06;;;10.31;nan
19108;BME280;9686;48.832;9.126;2023-04-19T05:45:43;98633.94;;;10.23;nan
19108;BME280;9686;48.832;9.126;2023-04-19T05:48:08;98636.59;;;10.41;nan
19108;BME280;9686;48.832;9.126;2023-04-19T05:50:34;98630.50;;;10.45;nan
19108;BME280;9686;48.832;9.126;2023-04-19T05:53:01;98629.63;;;10.47;nan
19108;BME280;9686;48.832;9.126;2023-04-19T05:55:26;98641.78;;;10.42;nan
19108;BME280;9686;48.832;9.126;2023-04-19T05:57:51;98634.84;;;10.43;nan
19108;BME280;9686;48.832;9.126;2023-04-19T06:00:16;98637.44;;;10.57;nan
19108;BME280;9686;48.832;9.126;2023-04-19T06:02:43;98634.84;;;10.46;nan
19108;BME280;9686;48.832;9.126;2023-04-19T06:05:08;98634.84;;;10.46;nan
19108;BME280;9686;48.832;9.126;2023-04-19T06:07:34;98633.97;;;10.52;nan
19108;BME280;9686;48.832;9.126;2023-04-19T06:09:59;98627.00;;;10.61;nan
19108;BME280;9686;48.832;9.126;2023-04-19T06:12:24;98632.22;;;10.52;nan
19108;BME280;9686;48.832;9.126;2023-04-19T06:14:50;98630.50;;;10.49;nan
19108;BME280;9686;48.832;9.126;2023-04-19T06:17:16;98627.88;;;10.60;nan
19108;BME280;9686;48.832;9.126;2023-04-19T06:19:41;98629.66;;;10.72;nan
19108;BME280;9686;48.832;9.126;2023-04-19T06:22:07;98627.03;;;10.70;nan
19108;BME280;9686;48.832;9.126;2023-04-19T06:24:32;98627.03;;;10.79;nan
19108;BME280;9686;48.832;9.126;2023-04-19T06:26:58;98627.88;;;10.89;nan
19108;BME280;9686;48.832;9.126;2023-04-19T06:29:23;98630.50;;;10.95;nan
19108;BME280;9686;48.832;9.126;2023-04-19T06:31:49;98628.75;;;11.05;nan
19108;BME280;9686;48.832;9.126;2023-04-19T06:34:15;98629.63;;;11.07;nan
19108;BME280;9686;48.832;9.126;2023-04-19T06:36:40;98628.75;;;11.03;nan
19108;BME280;9686;48.832;9.126;2023-04-19T06:39:06;98632.22;;;11.08;nan
19108;BME280;9686;48.832;9.126;2023-04-19T06:41:31;98629.63;;;11.05;nan
19108;BME280;9686;48.832;9.126;2023-04-19T06:43:57;98626.13;;;11.20;nan
19108;BME280;9686;48.832;9.126;2023-04-19T06:46:22;98632.16;;;11.42;nan
19108;BME280;9686;48.832;9.126;2023-04-19T06:48:47;98627.81;;;11.39;nan
19108;BME280;9686;48.832;9.126;2023-04-19T06:51:12;98638.28;;;11.33;nan
19108;BME280;9686;48.832;9.126;2023-04-19T06:53:38;98619.09;;;11.43;nan
19108;BME280;9686;48.832;9.126;2023-04-19T06:56:03;98633.91;;;11.40;nan
19108;BME280;9686;48.832;9.126;2023-04-19T06:58:29;98630.34;;;11.61;nan
19108;BME280;9686;48.832;9.126;2023-04-19T07:00:56;98626.03;;;11.55;nan
19108;BME280;9686;48.832;9.126;2023-04-19T07:03:21;98633.78;;;11.70;nan
19108;BME280;9686;48.832;9.126;2023-04-19T07:05:47;98633.81;;;11.75;nan
19108;BME280;9686;48.832;9.126;2023-04-19T07:08:12;98629.47;;;11.74;nan
19108;BME280;9686;48.832;9.126;2023-04-19T07:10:38;98622.47;;;11.78;nan
19108;BME280;9686;48.832;9.126;2023-04-19T07:13:03;98625.03;;;11.93;nan
19108;BME280;9686;48.832;9.126;2023-04-19T07:15:28;98618.13;;;11.75;nan
19108;BME280;9686;48.832;9.126;2023-04-19T07:17:54;98612.06;;;11.71;nan
19108;BME280;9686;48.832;9.126;2023-04-19T07:20:19;98611.19;;;11.71;nan
19108;BME280;9686;48.832;9.126;2023-04-19T07:22:45;98607.69;;;11.83;nan
19108;BME280;9686;48.832;9.126;2023-04-19T07:25:11;98620.75;;;11.78;nan
19108;BME280;9686;48.832;9.126;2023-04-19T07:27:36;98606.81;;;11.78;nan
19108;BME280;9686;48.832;9.126;2023-04-19T07:30:02;98610.25;;;11.87;nan
19108;BME280;9686;48.832;9.126;2023-04-19T07:32:27;98604.19;;;11.84;nan
19108;BME280;9686;48.832;9.126;2023-04-19T07:34:52;98596.31;;;11.88;nan
19108;BME280;9686;48.832;9.126;2023-04-19T07:37:18;98596.34;;;11.82;nan
19108;BME280;9686;48.832;9.126;2023-04-19T07:39:44;98594.63;;;11.83;nan
19108;BME280;9686;48.832;9.126;2023-04-19T07:42:09;98601.53;;;11.88;nan
19108;BME280;9686;48.832;9.126;2023-04-19T07:44:35;98597.16;;;11.98;nan
19108;BME280;9686;48.832;9.126;2023-04-19T07:47:00;98591.94;;;11.93;nan
19108;BME280;9686;48.832;9.126;2023-04-19T07:49:26;98593.53;;;12.17;nan
19108;BME280;9686;48.832;9.126;2023-04-19T07:51:51;98598.69;;;12.32;nan
19108;BME280;9686;48.832;9.126;2023-04-19T07:54:17;98584.72;;;12.37;nan
19108;BME280;9686;48.832;9.126;2023-04-19T07:56:44;98582.19;;;12.20;nan
19108;BME280;9686;48.832;9.126;2023-04-19T07:59:10;98584.78;;;12.26;nan
19108;BME280;9686;48.832;9.126;2023-04-19T08:01:35;98583.81;;;12.39;nan
19108;BME280;9686;48.832;9.126;2023-04-19T08:04:01;98581.97;;;12.55;nan
19108;BME280;9686;48.832;9.126;2023-04-19T08:06:26;98582.59;;;12.83;nan
19108;BME280;9686;48.832;9.126;2023-04-19T08:08:53;98584.84;;;13.21;nan
19108;BME280;9686;48.832;9.126;2023-04-19T08:11:19;98579.25;;;13.54;nan
19108;BME280;9686;48.832;9.126;2023-04-19T08:13:44;98570.44;;;13.62;nan
19108;BME280;9686;48.832;9.126;2023-04-19T08:16:09;98577.31;;;13.69;nan
19108;BME280;9686;48.832;9.126;2023-04-19T08:18:35;98571.16;;;13.73;nan
19108;BME280;9686;48.832;9.126;2023-04-19T08:21:00;98569.34;;;13.78;nan
19108;BME280;9686;48.832;9.126;2023-04-19T08:23:25;98576.44;;;13.68;nan
19108;BME280;9686;48.832;9.126;2023-04-19T08:25:51;98572.28;;;13.55;nan
19108;BME280;9686;48.832;9.126;2023-04-19T08:28:17;98571.41;;;13.51;nan
19108;BME280;9686;48.832;9.126;2023-04-19T08:30:43;98570.53;;;13.54;nan
19108;BME280;9686;48.832;9.126;2023-04-19T08:33:08;98563.50;;;13.57;nan
19108;BME280;9686;48.832;9.126;2023-04-19T08:35:36;98556.38;;;13.69;nan
19108;BME280;9686;48.832;9.126;2023-04-19T08:38:01;98572.94;;;13.69;nan
19108;BME280;9686;48.832;9.126;2023-04-19T08:40:29;98566.47;;;13.96;nan
19108;BME280;9686;48.832;9.126;2023-04-19T08:42:55;98561.66;;;13.64;nan
19108;BME280;9686;48.832;9.126;2023-04-19T08:45:23;98567.78;;;13.65;nan
19108;BME280;9686;48.832;9.126;2023-04-19T08:47:50;98562.69;;;13.54;nan
19108;BME280;9686;48.832;9.126;2023-04-19T08:50:19;98555.59;;;13.61;nan
19108;BME280;9686;48.832;9.126;2023-04-19T08:52:45;98555.59;;;13.61;nan
19108;BME280;9686;48.832;9.126;2023-04-19T08:55:11;98551.22;;;13.61;nan
19108;BME280;9686;48.832;9.126;2023-04-19T08:57:37;98560.03;;;13.52;nan
19108;BME280;9686;48.832;9.126;2023-04-19T09:00:02;98555.72;;;13.50;nan
19108;BME280;9686;48.832;9.126;2023-04-19T09:02:48;98556.81;;;13.34;nan
19108;BME280;9686;48.832;9.126;2023-04-19T09:05:14;98557.66;;;13.34;nan
19108;BME280;9686;48.832;9.126;2023-04-19T09:07:40;98554.28;;;13.24;nan
19108;BME280;9686;48.832;9.126;2023-04-19T09:10:11;98558.78;;;13.09;nan
19108;BME280;9686;48.832;9.126;2023-04-19T09:12:37;98546.69;;;12.95;nan
19108;BME280;9686;48.832;9.126;2023-04-19T09:15:05;98552.75;;;13.01;nan
19108;BME280;9686;48.832;9.126;2023-04-19T09:17:33;98549.94;;;13.22;nan
19108;BME280;9686;48.832;9.126;2023-04-19T09:19:58;98549.66;;;13.46;nan
19108;BME280;9686;48.832;9.126;2023-04-19T09:22:24;98546.16;;;13.47;nan
19108;BME280;9686;48.832;9.126;2023-04-19T09:24:50;98549.41;;;13.66;nan
19108;BME280;9686;48.832;9.126;2023-04-19T09:27:25;98540.59;;;13.72;nan
19108;BME280;9686;48.832;9.126;2023-04-19T09:29:55;98543.91;;;13.86;nan
19108;BME280;9686;48.832;9.126;2023-04-19T09:32:21;98532.56;;;13.85;nan
19108;BME280;9686;48.832;9.126;2023-04-19T09:34:55;98533.38;;;13.91;nan
19108;BME280;9686;48.832;9.126;2023-04-19T09:37:21;98535.09;;;13.92;nan
19108;BME280;9686;48.832;9.126;2023-04-19T09:39:47;98527.00;;;14.08;nan
19108;BME280;9686;48.832;9.126;2023-04-19T09:42:12;98516.28;;;14.22;nan
19108;BME280;9686;48.832;9.126;2023-04-19T09:44:38;98524.06;;;14.27;nan
19108;BME280;9686;48.832;9.126;2023-04-19T09:47:21;98516.25;;;14.24;nan
19108;BME280;9686;48.832;9.126;2023-04-19T09:49:47;98514.22;;;14.42;nan
19108;BME280;9686;48.832;9.126;2023-04-19T09:52:13;98513.28;;;14.46;nan
19108;BME280;9686;48.832;9.126;2023-04-19T09:54:40;98502.03;;;14.38;nan
19108;BME280;9686;48.832;9.126;2023-04-19T09:57:07;98501.91;;;14.47;nan
19108;BME280;9686;48.832;9.126;2023-04-19T09:59:32;98511.94;;;14.21;nan
19108;BME280;9686;48.832;9.126;2023-04-19T10:01:58;98501.00;;;14.50;nan
19108;BME280;9686;48.832;9.126;2023-04-19T10:04:25;98497.50;;;14.49;nan
19108;BME280;9686;48.832;9.126;2023-04-19T10:06:52;98493.22;;;14.42;nan
19108;BME280;9686;48.832;9.126;2023-04-19T10:09:18;98495.53;;;14.64;nan
19108;BME280;9686;48.832;9.126;2023-04-19T10:11:49;98494.97;;;14.45;nan
19108;BME280;9686;48.832;9.126;2023-04-19T10:14:15;98493.19;;;14.45;nan
19108;BME280;9686;48.832;9.126;2023-04-19T10:16:41;98488.63;;;14.57;nan
19108;BME280;9686;48.832;9.126;2023-04-19T10:19:11;98493.84;;;14.60;nan
19108;BME280;9686;48.832;9.126;2023-04-19T10:21:38;98492.38;;;14.40;nan
19108;BME280;9686;48.832;9.126;2023-04-19T10:24:05;98491.50;;;14.43;nan
19108;BME280;9686;48.832;9.126;2023-04-19T10:32:19;98485.31;;;14.47;nan
19108;BME280;9686;48.832;9.126;2023-04-19T10:34:45;98481.53;;;14.09;nan
19108;BME280;9686;48.832;9.126;2023-04-19T10:37:12;98485.09;;;14.05;nan
19108;BME280;9686;48.832;9.126;2023-04-19T10:39:41;98480.34;;;13.72;nan
19108;BME280;9686;48.832;9.126;2023-04-19T10:42:06;98475.06;;;13.75;nan
19108;BME280;9686;48.832;9.126;2023-04-19T10:44:32;98477.63;;;13.79;nan
19108;BME280;9686;48.832;9.126;2023-04-19T10:46:58;98475.81;;;13.83;nan
19108;BME280;9686;48.832;9.126;2023-04-19T10:49:25;98473.28;;;13.77;nan
19108;BME280;9686;48.832;9.126;2023-04-19T10:51:50;98460.84;;;13.91;nan
19108;BME280;9686;48.832;9.126;2023-04-19T10:54:31;98464.53;;;13.76;nan
19108;BME280;9686;48.832;9.126;2023-04-19T10:57:07;98461.16;;;14.25;nan
19108;BME280;9686;48.832;9.126;2023-04-19T10:59:37;98460.63;;;14.06;nan
19108;BME280;9686;48.832;9.126;2023-04-19T11:07:15;98454.44;;;14.10;nan
19108;BME280;9686;48.832;9.126;2023-04-19T11:09:46;98443.34;;;13.93;nan
19108;BME280;9686;48.832;9.126;2023-04-19T11:12:17;98450.53;;;13.80;nan
19108;BME280;9686;48.832;9.126;2023-04-19T11:14:47;98441.19;;;13.63;nan
19108;BME280;9686;48.832;9.126;2023-04-19T11:20:05;98438.66;;;13.56;nan
19108;BME280;9686;48.832;9.126;2023-04-19T11:22:44;98432.72;;;13.44;nan
19108;BME280;9686;48.832;9.126;2023-04-19T11:25:18;98436.44;;;13.27;nan
19108;BME280;9686;48.832;9.126;2023-04-19T11:27:46;98428.69;;;13.18;nan
19108;BME280;9686;48.832;9.126;2023-04-19T11:30:13;98432.19;;;13.16;nan
19108;BME280;9686;48.832;9.126;2023-04-19T11:32:46;98438.31;;;13.13;nan
19108;BME280;9686;48.832;9.126;2023-04-19T11:35:12;98427.84;;;13.13;nan
19108;BME280;9686;48.832;9.126;2023-04-19T11:37:38;98429.69;;;13.07;nan
19108;BME280;9686;48.832;9.126;2023-04-19T11:40:05;98436.75;;;13.02;nan
19108;BME280;9686;48.832;9.126;2023-04-19T11:42:31;98433.31;;;12.93;nan
19108;BME280;9686;48.832;9.126;2023-04-19T11:44:56;98428.94;;;12.95;nan
19108;BME280;9686;48.832;9.126;2023-04-19T11:47:23;98429.09;;;12.83;nan
19108;BME280;9686;48.832;9.126;2023-04-19T11:49:48;98433.56;;;12.75;nan
19108;BME280;9686;48.832;9.126;2023-04-19T11:52:24;98437.06;;;12.71;nan
19108;BME280;9686;48.832;9.126;2023-04-19T11:54:51;98439.00;;;12.55;nan
19108;BME280;9686;48.832;9.126;2023-04-19T11:57:26;98439.81;;;12.60;nan
19108;BME280;9686;48.832;9.126;2023-04-19T12:00:08;98443.53;;;12.35;nan
19108;BME280;9686;48.832;9.126;2023-04-19T12:02:39;98438.44;;;12.24;nan
19108;BME280;9686;48.832;9.126;2023-04-19T12:05:13;98437.63;;;12.13;nan
19108;BME280;9686;48.832;9.126;2023-04-19T12:08:04;98431.47;;;12.23;nan
19108;BME280;9686;48.832;9.126;2023-04-19T12:10:33;98436.75;;;12.14;nan
19108;BME280;9686;48.832;9.126;2023-04-19T12:12:58;98435.91;;;12.14;nan
19108;BME280;9686;48.832;9.126;2023-04-19T12:15:42;98440.38;;;12.01;nan
19108;BME280;9686;48.832;9.126;2023-04-19T12:18:08;98433.44;;;11.95;nan
19108;BME280;9686;48.832;9.126;2023-04-19T12:20:35;98438.75;;;11.83;nan
19108;BME280;9686;48.832;9.126;2023-04-19T12:23:01;98443.00;;;11.95;nan
19108;BME280;9686;48.832;9.126;2023-04-19T12:25:32;98433.53;;;11.85;nan
19108;BME280;9686;48.832;9.126;2023-04-19T12:27:58;98432.78;;;11.61;nan
19108;BME280;9686;48.832;9.126;2023-04-19T12:30:24;98431.03;;;11.63;nan
19108;BME280;9686;48.832;9.126;2023-04-19T12:32:51;98438.91;;;11.56;nan
19108;BME280;9686;48.832;9.126;2023-04-19T12:35:19;98437.19;;;11.55;nan
19108;BME280;9686;48.832;9.126;2023-04-19T12:37:45;98435.41;;;11.60;nan
19108;BME280;9686;48.832;9.126;2023-04-19T12:40:11;98434.47;;;11.73;nan
19108;BME280;9686;48.832;9.126;2023-04-19T12:42:36;98430.09;;;11.69;nan
19108;BME280;9686;48.832;9.126;2023-04-19T12:45:02;98431.84;;;11.71;nan
19108;BME280;9686;48.832;9.126;2023-04-19T12:47:27;98421.50;;;11.58;nan
19108;BME280;9686;48.832;9.126;2023-04-19T12:49:52;98426.69;;;11.59;nan
19108;BME280;9686;48.832;9.126;2023-04-19T12:52:20;98427.50;;;11.72;nan
19108;BME280;9686;48.832;9.126;2023-04-19T12:54:45;98416.28;;;11.58;nan
19108;BME280;9686;48.832;9.126;2023-04-19T12:57:10;98421.44;;;11.65;nan
19108;BME280;9686;48.832;9.126;2023-04-19T12:59:36;98417.91;;;11.69;nan
19108;BME280;9686;48.832;9.126;2023-04-19T13:02:01;98414.44;;;11.73;nan
19108;BME280;9686;48.832;9.126;2023-04-19T13:04:26;98415.41;;;11.57;nan
19108;BME280;9686;48.832;9.126;2023-04-19T13:06:52;98417.94;;;11.65;nan
19108;BME280;9686;48.832;9.126;2023-04-19T13:09:17;98408.38;;;11.65;nan
19108;BME280;9686;48.832;9.126;2023-04-19T13:11:43;98402.28;;;11.63;nan
19108;BME280;9686;48.832;9.126;2023-04-19T13:14:08;98411.09;;;11.53;nan
19108;BME280;9686;48.832;9.126;2023-04-19T13:16:33;98401.56;;;11.48;nan
19108;BME280;9686;48.832;9.126;2023-04-19T13:18:59;98401.41;;;11.66;nan
19108;BME280;9686;48.832;9.126;2023-04-19T13:21:24;98399.66;;;11.65;nan
19108;BME280;9686;48.832;9.126;2023-04-19T13:23:52;98393.56;;;11.66;nan
19108;BME280;9686;48.832;9.126;2023-04-19T13:26:17;98389.19;;;11.69;nan
19108;BME280;9686;48.832;9.126;2023-04-19T13:28:43;98386.53;;;11.77;nan
19108;BME280;9686;48.832;9.126;2023-04-19T13:31:08;98379.41;;;12.02;nan
19108;BME280;9686;48.832;9.126;2023-04-19T13:33:33;98380.16;;;12.13;nan
19108;BME280;9686;48.832;9.126;2023-04-19T13:35:59;98378.53;;;12.01;nan
19108;BME280;9686;48.832;9.126;2023-04-19T13:38:24;98375.03;;;12.04;nan
19108;BME280;9686;48.832;9.126;2023-04-19T13:40:50;98365.47;;;12.01;nan
19108;BME280;9686;48.832;9.126;2023-04-19T13:43:15;98365.53;;;11.91;nan